sensor_id;sensor_type;location;lat;lon;timestamp;P1;durP1;ratioP1;P2;durP2;ratioP2
21681;SDS011;11002;48.256;10.084;2022-11-23T00:01:32;3.20;;;2.03;;
21681;SDS011;11002;48.256;10.084;2022-11-23T00:04:01;2.30;;;2.03;;
21681;SDS011;11002;48.256;10.084;2022-11-23T00:06:30;3.50;;;1.98;;
21681;SDS011;11002;48.256;10.084;2022-11-23T00:08:57;2.80;;;2.35;;
21681;SDS011;11002;48.256;10.084;2022-11-23T00:11:25;2.22;;;1.85;;
21681;SDS011;11002;48.256;10.084;2022-11-23T00:13:53;2.35;;;1.77;;
21681;SDS011;11002;48.256;10.084;2022-11-23T00:16:22;1.75;;;1.65;;
21681;SDS011;11002;48.256;10.084;2022-11-23T00:18:52;1.88;;;1.77;;
21681;SDS011;11002;48.256;10.084;2022-11-23T00:21:21;3.08;;;2.17;;
21681;SDS011;11002;48.256;10.084;2022-11-23T00:23:49;2.00;;;1.80;;
21681;SDS011;11002;48.256;10.084;2022-11-23T00:26:17;1.90;;;1.73;;
21681;SDS011;11002;48.256;10.084;2022-11-23T00:28:45;3.63;;;1.92;;
21681;SDS011;11002;48.256;10.084;2022-11-23T00:31:14;1.80;;;1.70;;
21681;SDS011;11002;48.256;10.084;2022-11-23T00:33:42;2.00;;;1.63;;
21681;SDS011;11002;48.256;10.084;2022-11-23T00:36:15;2.70;;;1.75;;
21681;SDS011;11002;48.256;10.084;2022-11-23T00:38:43;2.08;;;1.90;;
21681;SDS011;11002;48.256;10.084;2022-11-23T00:41:11;2.53;;;1.90;;
21681;SDS011;11002;48.256;10.084;2022-11-23T00:43:40;2.33;;;1.88;;
21681;SDS011;11002;48.256;10.084;2022-11-23T00:46:09;2.38;;;2.03;;
21681;SDS011;11002;48.256;10.084;2022-11-23T00:48:40;2.00;;;1.67;;
21681;SDS011;11002;48.256;10.084;2022-11-23T00:51:08;1.83;;;1.60;;
21681;SDS011;11002;48.256;10.084;2022-11-23T00:53:40;2.20;;;1.65;;
21681;SDS011;11002;48.256;10.084;2022-11-23T00:56:07;3.38;;;1.63;;
21681;SDS011;11002;48.256;10.084;2022-11-23T00:58:35;2.25;;;1.70;;
21681;SDS011;11002;48.256;10.084;2022-11-23T01:01:05;2.30;;;1.90;;
21681;SDS011;11002;48.256;10.084;2022-11-23T01:03:34;1.92;;;1.73;;
21681;SDS011;11002;48.256;10.084;2022-11-23T01:06:03;2.13;;;1.75;;
21681;SDS011;11002;48.256;10.084;2022-11-23T01:08:32;1.92;;;1.50;;
21681;SDS011;11002;48.256;10.084;2022-11-23T01:11:02;2.08;;;1.88;;
21681;SDS011;11002;48.256;10.084;2022-11-23T01:16:01;1.55;;;1.45;;
21681;SDS011;11002;48.256;10.084;2022-11-23T01:18:28;2.08;;;1.60;;
21681;SDS011;11002;48.256;10.084;2022-11-23T01:20:56;2.42;;;1.30;;
21681;SDS011;11002;48.256;10.084;2022-11-23T01:23:27;1.70;;;1.60;;
21681;SDS011;11002;48.256;10.084;2022-11-23T01:25:54;1.52;;;1.40;;
21681;SDS011;11002;48.256;10.084;2022-11-23T01:28:23;1.50;;;1.38;;
21681;SDS011;11002;48.256;10.084;2022-11-23T01:30:50;1.77;;;1.48;;
21681;SDS011;11002;48.256;10.084;2022-11-23T01:33:18;2.25;;;1.63;;
21681;SDS011;11002;48.256;10.084;2022-11-23T01:35:45;2.05;;;1.60;;
21681;SDS011;11002;48.256;10.084;2022-11-23T01:38:13;1.48;;;1.20;;
21681;SDS011;11002;48.256;10.084;2022-11-23T01:40:40;2.10;;;1.60;;
21681;SDS011;11002;48.256;10.084;2022-11-23T01:43:12;1.55;;;1.45;;
21681;SDS011;11002;48.256;10.084;2022-11-23T01:45:43;1.70;;;1.55;;
21681;SDS011;11002;48.256;10.084;2022-11-23T01:48:21;1.83;;;1.38;;
21681;SDS011;11002;48.256;10.084;2022-11-23T01:50:52;1.88;;;1.50;;
21681;SDS011;11002;48.256;10.084;2022-11-23T01:53:22;1.27;;;1.17;;
21681;SDS011;11002;48.256;10.084;2022-11-23T01:55:49;1.50;;;1.33;;
21681;SDS011;11002;48.256;10.084;2022-11-23T01:58:18;2.03;;;1.50;;
21681;SDS011;11002;48.256;10.084;2022-11-23T02:00:50;1.40;;;1.30;;
21681;SDS011;11002;48.256;10.084;2022-11-23T02:03:17;1.27;;;1.17;;
21681;SDS011;11002;48.256;10.084;2022-11-23T02:05:47;1.67;;;1.10;;
21681;SDS011;11002;48.256;10.084;2022-11-23T02:08:18;1.90;;;1.52;;
21681;SDS011;11002;48.256;10.084;2022-11-23T02:10:46;1.30;;;1.17;;
21681;SDS011;11002;48.256;10.084;2022-11-23T02:13:14;1.60;;;1.48;;
21681;SDS011;11002;48.256;10.084;2022-11-23T02:15:41;1.08;;;1.00;;
21681;SDS011;11002;48.256;10.084;2022-11-23T02:18:11;1.27;;;1.10;;
21681;SDS011;11002;48.256;10.084;2022-11-23T02:20:42;1.65;;;1.10;;
21681;SDS011;11002;48.256;10.084;2022-11-23T02:23:15;1.48;;;1.20;;
21681;SDS011;11002;48.256;10.084;2022-11-23T02:25:54;1.73;;;1.30;;
21681;SDS011;11002;48.256;10.084;2022-11-23T02:28:26;1.58;;;1.30;;
21681;SDS011;11002;48.256;10.084;2022-11-23T02:30:57;1.50;;;1.40;;
21681;SDS011;11002;48.256;10.084;2022-11-23T02:33:24;1.85;;;1.25;;
21681;SDS011;11002;48.256;10.084;2022-11-23T02:35:52;1.48;;;1.10;;
21681;SDS011;11002;48.256;10.084;2022-11-23T02:38:21;1.02;;;0.90;;
21681;SDS011;11002;48.256;10.084;2022-11-23T02:40:50;1.35;;;1.20;;
21681;SDS011;11002;48.256;10.084;2022-11-23T02:43:22;1.33;;;1.08;;
21681;SDS011;11002;48.256;10.084;2022-11-23T02:45:53;1.25;;;1.00;;
21681;SDS011;11002;48.256;10.084;2022-11-23T02:48:23;0.93;;;0.80;;
21681;SDS011;11002;48.256;10.084;2022-11-23T02:50:51;1.10;;;1.00;;
21681;SDS011;11002;48.256;10.084;2022-11-23T02:53:18;1.20;;;1.08;;
21681;SDS011;11002;48.256;10.084;2022-11-23T02:55:46;1.83;;;1.17;;
21681;SDS011;11002;48.256;10.084;2022-11-23T02:58:13;1.20;;;1.05;;
21681;SDS011;11002;48.256;10.084;2022-11-23T03:00:42;1.15;;;0.93;;
21681;SDS011;11002;48.256;10.084;2022-11-23T03:03:09;1.25;;;0.98;;
21681;SDS011;11002;48.256;10.084;2022-11-23T03:05:38;0.95;;;0.90;;
21681;SDS011;11002;48.256;10.084;2022-11-23T03:08:06;1.38;;;0.98;;
21681;SDS011;11002;48.256;10.084;2022-11-23T03:10:33;1.88;;;1.00;;
21681;SDS011;11002;48.256;10.084;2022-11-23T03:13:01;1.25;;;1.00;;
21681;SDS011;11002;48.256;10.084;2022-11-23T03:15:32;1.08;;;0.82;;
21681;SDS011;11002;48.256;10.084;2022-11-23T03:18:04;1.60;;;1.00;;
21681;SDS011;11002;48.256;10.084;2022-11-23T03:20:33;1.48;;;1.10;;
21681;SDS011;11002;48.256;10.084;2022-11-23T03:23:00;0.85;;;0.85;;
21681;SDS011;11002;48.256;10.084;2022-11-23T03:25:28;1.05;;;0.95;;
21681;SDS011;11002;48.256;10.084;2022-11-23T03:27:57;1.27;;;0.93;;
21681;SDS011;11002;48.256;10.084;2022-11-23T03:30:25;1.27;;;0.80;;
21681;SDS011;11002;48.256;10.084;2022-11-23T03:32:53;2.08;;;1.00;;
21681;SDS011;11002;48.256;10.084;2022-11-23T03:35:23;1.10;;;1.00;;
21681;SDS011;11002;48.256;10.084;2022-11-23T03:38:10;1.23;;;0.95;;
21681;SDS011;11002;48.256;10.084;2022-11-23T03:40:37;1.00;;;0.70;;
21681;SDS011;11002;48.256;10.084;2022-11-23T03:43:12;0.98;;;0.70;;
21681;SDS011;11002;48.256;10.084;2022-11-23T03:45:41;0.70;;;0.70;;
21681;SDS011;11002;48.256;10.084;2022-11-23T03:48:08;1.17;;;1.00;;
21681;SDS011;11002;48.256;10.084;2022-11-23T03:50:37;0.80;;;0.77;;
21681;SDS011;11002;48.256;10.084;2022-11-23T03:53:05;1.10;;;0.90;;
21681;SDS011;11002;48.256;10.084;2022-11-23T03:55:33;0.98;;;0.90;;
21681;SDS011;11002;48.256;10.084;2022-11-23T03:58:01;1.20;;;1.00;;
21681;SDS011;11002;48.256;10.084;2022-11-23T04:00:33;0.95;;;0.70;;
21681;SDS011;11002;48.256;10.084;2022-11-23T04:03:00;0.93;;;0.85;;
21681;SDS011;11002;48.256;10.084;2022-11-23T04:05:48;0.88;;;0.88;;
21681;SDS011;11002;48.256;10.084;2022-11-23T04:08:38;0.60;;;0.60;;
21681;SDS011;11002;48.256;10.084;2022-11-23T04:11:10;0.80;;;0.70;;
21681;SDS011;11002;48.256;10.084;2022-11-23T04:13:40;1.00;;;0.73;;
21681;SDS011;11002;48.256;10.084;2022-11-23T04:16:08;1.10;;;0.70;;
21681;SDS011;11002;48.256;10.084;2022-11-23T04:18:36;0.60;;;0.60;;
21681;SDS011;11002;48.256;10.084;2022-11-23T04:21:05;1.05;;;0.77;;
21681;SDS011;11002;48.256;10.084;2022-11-23T04:23:33;0.80;;;0.80;;
21681;SDS011;11002;48.256;10.084;2022-11-23T04:26:02;1.13;;;0.73;;
21681;SDS011;11002;48.256;10.084;2022-11-23T04:28:29;0.70;;;0.70;;
21681;SDS011;11002;48.256;10.084;2022-11-23T04:30:57;0.57;;;0.57;;
21681;SDS011;11002;48.256;10.084;2022-11-23T04:33:27;0.60;;;0.60;;
21681;SDS011;11002;48.256;10.084;2022-11-23T04:35:56;1.08;;;0.77;;
21681;SDS011;11002;48.256;10.084;2022-11-23T04:38:25;1.95;;;0.88;;
21681;SDS011;11002;48.256;10.084;2022-11-23T04:40:53;0.70;;;0.70;;
21681;SDS011;11002;48.256;10.084;2022-11-23T04:43:20;0.77;;;0.60;;
21681;SDS011;11002;48.256;10.084;2022-11-23T04:45:49;0.65;;;0.55;;
21681;SDS011;11002;48.256;10.084;2022-11-23T04:48:23;1.27;;;0.60;;
21681;SDS011;11002;48.256;10.084;2022-11-23T04:50:52;0.70;;;0.68;;
21681;SDS011;11002;48.256;10.084;2022-11-23T04:53:27;0.60;;;0.50;;
21681;SDS011;11002;48.256;10.084;2022-11-23T04:55:55;0.85;;;0.60;;
21681;SDS011;11002;48.256;10.084;2022-11-23T04:58:22;1.00;;;0.70;;
21681;SDS011;11002;48.256;10.084;2022-11-23T05:00:56;0.73;;;0.60;;
21681;SDS011;11002;48.256;10.084;2022-11-23T05:03:23;0.60;;;0.60;;
21681;SDS011;11002;48.256;10.084;2022-11-23T05:05:51;0.70;;;0.63;;
21681;SDS011;11002;48.256;10.084;2022-11-23T05:08:18;0.65;;;0.65;;
21681;SDS011;11002;48.256;10.084;2022-11-23T05:10:56;1.83;;;0.65;;
21681;SDS011;11002;48.256;10.084;2022-11-23T05:13:24;0.68;;;0.50;;
21681;SDS011;11002;48.256;10.084;2022-11-23T05:15:52;0.50;;;0.50;;
21681;SDS011;11002;48.256;10.084;2022-11-23T05:18:24;0.68;;;0.68;;
21681;SDS011;11002;48.256;10.084;2022-11-23T05:20:52;0.60;;;0.43;;
21681;SDS011;11002;48.256;10.084;2022-11-23T05:23:20;0.60;;;0.60;;
21681;SDS011;11002;48.256;10.084;2022-11-23T05:25:49;0.50;;;0.50;;
21681;SDS011;11002;48.256;10.084;2022-11-23T05:28:20;0.50;;;0.47;;
21681;SDS011;11002;48.256;10.084;2022-11-23T05:30:47;0.82;;;0.63;;
21681;SDS011;11002;48.256;10.084;2022-11-23T05:33:15;0.40;;;0.40;;
21681;SDS011;11002;48.256;10.084;2022-11-23T05:35:43;0.95;;;0.60;;
21681;SDS011;11002;48.256;10.084;2022-11-23T05:38:10;0.50;;;0.40;;
21681;SDS011;11002;48.256;10.084;2022-11-23T05:40:38;0.57;;;0.57;;
21681;SDS011;11002;48.256;10.084;2022-11-23T05:43:06;0.30;;;0.30;;
21681;SDS011;11002;48.256;10.084;2022-11-23T05:45:36;0.50;;;0.50;;
21681;SDS011;11002;48.256;10.084;2022-11-23T05:48:04;0.75;;;0.57;;
21681;SDS011;11002;48.256;10.084;2022-11-23T05:50:48;0.50;;;0.40;;
21681;SDS011;11002;48.256;10.084;2022-11-23T05:53:23;0.40;;;0.40;;
21681;SDS011;11002;48.256;10.084;2022-11-23T05:55:58;0.38;;;0.38;;
21681;SDS011;11002;48.256;10.084;2022-11-23T05:58:28;0.77;;;0.50;;
21681;SDS011;11002;48.256;10.084;2022-11-23T06:00:57;0.50;;;0.40;;
21681;SDS011;11002;48.256;10.084;2022-11-23T06:03:28;0.47;;;0.47;;
21681;SDS011;11002;48.256;10.084;2022-11-23T06:05:56;1.17;;;0.60;;
21681;SDS011;11002;48.256;10.084;2022-11-23T06:08:32;0.50;;;0.50;;
21681;SDS011;11002;48.256;10.084;2022-11-23T06:10:59;0.57;;;0.57;;
21681;SDS011;11002;48.256;10.084;2022-11-23T06:13:28;0.50;;;0.50;;
21681;SDS011;11002;48.256;10.084;2022-11-23T06:15:57;0.70;;;0.47;;
21681;SDS011;11002;48.256;10.084;2022-11-23T06:18:32;0.50;;;0.50;;
21681;SDS011;11002;48.256;10.084;2022-11-23T06:21:00;0.68;;;0.52;;
21681;SDS011;11002;48.256;10.084;2022-11-23T06:23:27;0.50;;;0.47;;
21681;SDS011;11002;48.256;10.084;2022-11-23T06:25:58;0.63;;;0.40;;
21681;SDS011;11002;48.256;10.084;2022-11-23T06:28:26;0.80;;;0.55;;
21681;SDS011;11002;48.256;10.084;2022-11-23T06:31:02;0.60;;;0.57;;
21681;SDS011;11002;48.256;10.084;2022-11-23T06:33:31;0.52;;;0.52;;
21681;SDS011;11002;48.256;10.084;2022-11-23T06:35:59;0.65;;;0.35;;
21681;SDS011;11002;48.256;10.084;2022-11-23T06:38:34;0.73;;;0.50;;
21681;SDS011;11002;48.256;10.084;2022-11-23T06:41:08;0.40;;;0.40;;
21681;SDS011;11002;48.256;10.084;2022-11-23T06:43:35;0.45;;;0.40;;
21681;SDS011;11002;48.256;10.084;2022-11-23T06:46:05;0.50;;;0.50;;
21681;SDS011;11002;48.256;10.084;2022-11-23T06:48:37;0.40;;;0.40;;
21681;SDS011;11002;48.256;10.084;2022-11-23T06:51:05;0.85;;;0.55;;
21681;SDS011;11002;48.256;10.084;2022-11-23T06:53:35;0.47;;;0.47;;
21681;SDS011;11002;48.256;10.084;2022-11-23T06:56:05;0.73;;;0.45;;
21681;SDS011;11002;48.256;10.084;2022-11-23T06:58:34;0.60;;;0.60;;
21681;SDS011;11002;48.256;10.084;2022-11-23T07:01:07;0.60;;;0.50;;
21681;SDS011;11002;48.256;10.084;2022-11-23T07:03:58;0.75;;;0.50;;
21681;SDS011;11002;48.256;10.084;2022-11-23T07:06:32;0.68;;;0.60;;
21681;SDS011;11002;48.256;10.084;2022-11-23T07:09:05;0.73;;;0.43;;
21681;SDS011;11002;48.256;10.084;2022-11-23T07:11:45;0.80;;;0.60;;
21681;SDS011;11002;48.256;10.084;2022-11-23T07:14:14;0.55;;;0.55;;
21681;SDS011;11002;48.256;10.084;2022-11-23T07:16:47;0.73;;;0.50;;
21681;SDS011;11002;48.256;10.084;2022-11-23T07:19:14;0.70;;;0.60;;
21681;SDS011;11002;48.256;10.084;2022-11-23T07:21:43;1.48;;;0.70;;
21681;SDS011;11002;48.256;10.084;2022-11-23T07:24:11;0.85;;;0.68;;
21681;SDS011;11002;48.256;10.084;2022-11-23T07:26:39;1.98;;;0.60;;
21681;SDS011;11002;48.256;10.084;2022-11-23T07:29:08;1.45;;;0.75;;
21681;SDS011;11002;48.256;10.084;2022-11-23T07:31:39;0.70;;;0.52;;
21681;SDS011;11002;48.256;10.084;2022-11-23T07:34:08;0.65;;;0.50;;
21681;SDS011;11002;48.256;10.084;2022-11-23T07:36:35;0.50;;;0.50;;
21681;SDS011;11002;48.256;10.084;2022-11-23T07:39:04;0.73;;;0.60;;
21681;SDS011;11002;48.256;10.084;2022-11-23T07:41:31;0.50;;;0.50;;
21681;SDS011;11002;48.256;10.084;2022-11-23T07:44:15;0.82;;;0.75;;
21681;SDS011;11002;48.256;10.084;2022-11-23T07:46:43;0.90;;;0.70;;
21681;SDS011;11002;48.256;10.084;2022-11-23T07:49:12;0.98;;;0.68;;
21681;SDS011;11002;48.256;10.084;2022-11-23T07:51:39;0.77;;;0.70;;
21681;SDS011;11002;48.256;10.084;2022-11-23T07:54:07;0.40;;;0.40;;
21681;SDS011;11002;48.256;10.084;2022-11-23T07:56:34;1.35;;;0.50;;
21681;SDS011;11002;48.256;10.084;2022-11-23T07:59:02;1.80;;;0.70;;
21681;SDS011;11002;48.256;10.084;2022-11-23T08:01:29;0.50;;;0.50;;
21681;SDS011;11002;48.256;10.084;2022-11-23T08:03:57;0.70;;;0.63;;
21681;SDS011;11002;48.256;10.084;2022-11-23T08:06:25;0.68;;;0.65;;
21681;SDS011;11002;48.256;10.084;2022-11-23T08:08:52;0.55;;;0.55;;
21681;SDS011;11002;48.256;10.084;2022-11-23T08:11:21;1.40;;;0.60;;
21681;SDS011;11002;48.256;10.084;2022-11-23T08:13:48;0.65;;;0.57;;
21681;SDS011;11002;48.256;10.084;2022-11-23T08:16:15;1.17;;;0.70;;
21681;SDS011;11002;48.256;10.084;2022-11-23T08:18:44;1.63;;;0.60;;
21681;SDS011;11002;48.256;10.084;2022-11-23T08:21:11;0.68;;;0.52;;
21681;SDS011;11002;48.256;10.084;2022-11-23T08:23:40;0.98;;;0.85;;
21681;SDS011;11002;48.256;10.084;2022-11-23T08:26:07;0.50;;;0.50;;
21681;SDS011;11002;48.256;10.084;2022-11-23T08:28:35;0.77;;;0.63;;
21681;SDS011;11002;48.256;10.084;2022-11-23T08:31:04;1.27;;;0.80;;
21681;SDS011;11002;48.256;10.084;2022-11-23T08:33:32;1.20;;;0.68;;
21681;SDS011;11002;48.256;10.084;2022-11-23T08:36:02;0.52;;;0.40;;
21681;SDS011;11002;48.256;10.084;2022-11-23T08:38:30;0.68;;;0.55;;
21681;SDS011;11002;48.256;10.084;2022-11-23T08:41:00;0.98;;;0.65;;
21681;SDS011;11002;48.256;10.084;2022-11-23T08:43:28;0.60;;;0.60;;
21681;SDS011;11002;48.256;10.084;2022-11-23T08:45:55;0.60;;;0.60;;
21681;SDS011;11002;48.256;10.084;2022-11-23T08:48:23;0.60;;;0.50;;
21681;SDS011;11002;48.256;10.084;2022-11-23T08:50:51;0.50;;;0.50;;
21681;SDS011;11002;48.256;10.084;2022-11-23T08:53:19;1.30;;;0.73;;
21681;SDS011;11002;48.256;10.084;2022-11-23T08:55:46;0.85;;;0.70;;
21681;SDS011;11002;48.256;10.084;2022-11-23T08:58:15;0.95;;;0.60;;
21681;SDS011;11002;48.256;10.084;2022-11-23T09:00:42;0.55;;;0.52;;
21681;SDS011;11002;48.256;10.084;2022-11-23T09:03:10;0.60;;;0.60;;
21681;SDS011;11002;48.256;10.084;2022-11-23T09:05:37;0.98;;;0.60;;
21681;SDS011;11002;48.256;10.084;2022-11-23T09:08:05;1.00;;;0.60;;
21681;SDS011;11002;48.256;10.084;2022-11-23T09:10:33;0.85;;;0.43;;
21681;SDS011;11002;48.256;10.084;2022-11-23T09:13:01;0.95;;;0.80;;
21681;SDS011;11002;48.256;10.084;2022-11-23T09:15:29;0.68;;;0.68;;
21681;SDS011;11002;48.256;10.084;2022-11-23T09:17:57;2.05;;;0.80;;
21681;SDS011;11002;48.256;10.084;2022-11-23T09:20:24;0.70;;;0.60;;
21681;SDS011;11002;48.256;10.084;2022-11-23T09:22:52;0.80;;;0.80;;
21681;SDS011;11002;48.256;10.084;2022-11-23T09:25:21;1.02;;;0.73;;
21681;SDS011;11002;48.256;10.084;2022-11-23T09:27:54;1.52;;;0.73;;
21681;SDS011;11002;48.256;10.084;2022-11-23T09:30:23;1.02;;;0.80;;
21681;SDS011;11002;48.256;10.084;2022-11-23T09:32:51;0.60;;;0.60;;
21681;SDS011;11002;48.256;10.084;2022-11-23T09:35:20;0.52;;;0.52;;
21681;SDS011;11002;48.256;10.084;2022-11-23T09:37:53;0.90;;;0.50;;
21681;SDS011;11002;48.256;10.084;2022-11-23T09:40:21;0.50;;;0.50;;
21681;SDS011;11002;48.256;10.084;2022-11-23T09:42:52;1.00;;;0.80;;
21681;SDS011;11002;48.256;10.084;2022-11-23T09:45:35;0.98;;;0.63;;
21681;SDS011;11002;48.256;10.084;2022-11-23T09:51:19;0.60;;;0.60;;
21681;SDS011;11002;48.256;10.084;2022-11-23T09:53:48;0.88;;;0.63;;
21681;SDS011;11002;48.256;10.084;2022-11-23T09:56:19;0.82;;;0.60;;
21681;SDS011;11002;48.256;10.084;2022-11-23T09:58:50;1.60;;;0.65;;
21681;SDS011;11002;48.256;10.084;2022-11-23T10:01:20;1.13;;;0.77;;
21681;SDS011;11002;48.256;10.084;2022-11-23T10:03:47;0.70;;;0.60;;
21681;SDS011;11002;48.256;10.084;2022-11-23T10:06:16;0.68;;;0.60;;
21681;SDS011;11002;48.256;10.084;2022-11-23T10:08:50;0.88;;;0.60;;
21681;SDS011;11002;48.256;10.084;2022-11-23T10:11:36;0.77;;;0.60;;
21681;SDS011;11002;48.256;10.084;2022-11-23T10:14:27;1.05;;;0.82;;
21681;SDS011;11002;48.256;10.084;2022-11-23T10:17:07;1.25;;;0.77;;
21681;SDS011;11002;48.256;10.084;2022-11-23T10:19:48;0.90;;;0.63;;
21681;SDS011;11002;48.256;10.084;2022-11-23T10:22:28;0.90;;;0.68;;
21681;SDS011;11002;48.256;10.084;2022-11-23T10:25:00;1.13;;;0.60;;
21681;SDS011;11002;48.256;10.084;2022-11-23T10:27:35;0.70;;;0.70;;
21681;SDS011;11002;48.256;10.084;2022-11-23T10:30:05;0.90;;;0.70;;
21681;SDS011;11002;48.256;10.084;2022-11-23T10:32:41;1.08;;;0.70;;
21681;SDS011;11002;48.256;10.084;2022-11-23T10:35:13;0.98;;;0.68;;
21681;SDS011;11002;48.256;10.084;2022-11-23T10:37:43;0.60;;;0.57;;
21681;SDS011;11002;48.256;10.084;2022-11-23T10:40:13;0.73;;;0.70;;
21681;SDS011;11002;48.256;10.084;2022-11-23T10:42:44;0.80;;;0.52;;
21681;SDS011;11002;48.256;10.084;2022-11-23T10:45:23;0.60;;;0.60;;
21681;SDS011;11002;48.256;10.084;2022-11-23T10:47:52;0.77;;;0.60;;
21681;SDS011;11002;48.256;10.084;2022-11-23T10:50:24;0.70;;;0.70;;
21681;SDS011;11002;48.256;10.084;2022-11-23T10:52:56;0.88;;;0.60;;
21681;SDS011;11002;48.256;10.084;2022-11-23T10:55:27;0.82;;;0.70;;
21681;SDS011;11002;48.256;10.084;2022-11-23T10:57:56;0.50;;;0.50;;
21681;SDS011;11002;48.256;10.084;2022-11-23T11:00:24;1.52;;;0.80;;
21681;SDS011;11002;48.256;10.084;2022-11-23T11:02:53;0.40;;;0.40;;
21681;SDS011;11002;48.256;10.084;2022-11-23T11:05:26;0.60;;;0.60;;
21681;SDS011;11002;48.256;10.084;2022-11-23T11:08:01;0.93;;;0.50;;
21681;SDS011;11002;48.256;10.084;2022-11-23T11:10:39;1.27;;;0.90;;
21681;SDS011;11002;48.256;10.084;2022-11-23T11:15:52;0.80;;;0.45;;
21681;SDS011;11002;48.256;10.084;2022-11-23T11:18:22;0.80;;;0.77;;
21681;SDS011;11002;48.256;10.084;2022-11-23T11:20:58;1.13;;;0.68;;
21681;SDS011;11002;48.256;10.084;2022-11-23T11:23:28;1.58;;;0.60;;
21681;SDS011;11002;48.256;10.084;2022-11-23T11:26:04;0.55;;;0.52;;
21681;SDS011;11002;48.256;10.084;2022-11-23T11:28:40;0.80;;;0.60;;
21681;SDS011;11002;48.256;10.084;2022-11-23T11:31:15;0.90;;;0.60;;
21681;SDS011;11002;48.256;10.084;2022-11-23T11:33:52;0.60;;;0.57;;
21681;SDS011;11002;48.256;10.084;2022-11-23T11:36:29;0.70;;;0.70;;
21681;SDS011;11002;48.256;10.084;2022-11-23T11:39:11;0.75;;;0.52;;
21681;SDS011;11002;48.256;10.084;2022-11-23T11:41:42;0.38;;;0.38;;
21681;SDS011;11002;48.256;10.084;2022-11-23T11:44:12;1.15;;;0.60;;
21681;SDS011;11002;48.256;10.084;2022-11-23T11:46:46;0.63;;;0.55;;
21681;SDS011;11002;48.256;10.084;2022-11-23T11:49:20;0.43;;;0.43;;
21681;SDS011;11002;48.256;10.084;2022-11-23T11:51:51;0.85;;;0.63;;
21681;SDS011;11002;48.256;10.084;2022-11-23T11:54:24;0.80;;;0.60;;
21681;SDS011;11002;48.256;10.084;2022-11-23T11:56:59;0.65;;;0.60;;
21681;SDS011;11002;48.256;10.084;2022-11-23T11:59:31;0.52;;;0.40;;
21681;SDS011;11002;48.256;10.084;2022-11-23T12:02:13;1.05;;;0.68;;
21681;SDS011;11002;48.256;10.084;2022-11-23T12:04:49;0.82;;;0.32;;
21681;SDS011;11002;48.256;10.084;2022-11-23T12:07:26;0.60;;;0.50;;
21681;SDS011;11002;48.256;10.084;2022-11-23T12:09:59;0.50;;;0.43;;
21681;SDS011;11002;48.256;10.084;2022-11-23T12:12:31;0.70;;;0.60;;
21681;SDS011;11002;48.256;10.084;2022-11-23T12:15:00;0.60;;;0.55;;
21681;SDS011;11002;48.256;10.084;2022-11-23T12:17:40;0.40;;;0.40;;
21681;SDS011;11002;48.256;10.084;2022-11-23T12:20:18;0.93;;;0.52;;
21681;SDS011;11002;48.256;10.084;2022-11-23T12:22:55;0.50;;;0.40;;
21681;SDS011;11002;48.256;10.084;2022-11-23T12:25:36;0.50;;;0.50;;
21681;SDS011;11002;48.256;10.084;2022-11-23T12:28:19;1.70;;;0.60;;
21681;SDS011;11002;48.256;10.084;2022-11-23T12:30:59;0.60;;;0.50;;
21681;SDS011;11002;48.256;10.084;2022-11-23T12:36:17;0.77;;;0.52;;
21681;SDS011;11002;48.256;10.084;2022-11-23T12:39:04;0.70;;;0.55;;
21681;SDS011;11002;48.256;10.084;2022-11-23T12:41:43;0.82;;;0.40;;
21681;SDS011;11002;48.256;10.084;2022-11-23T12:44:23;0.50;;;0.47;;
21681;SDS011;11002;48.256;10.084;2022-11-23T12:47:14;0.85;;;0.50;;
21681;SDS011;11002;48.256;10.084;2022-11-23T12:49:50;0.57;;;0.57;;
21681;SDS011;11002;48.256;10.084;2022-11-23T12:52:25;0.98;;;0.52;;
21681;SDS011;11002;48.256;10.084;2022-11-23T12:55:07;0.75;;;0.43;;
21681;SDS011;11002;48.256;10.084;2022-11-23T12:57:48;0.50;;;0.45;;
21681;SDS011;11002;48.256;10.084;2022-11-23T13:00:20;0.40;;;0.40;;
21681;SDS011;11002;48.256;10.084;2022-11-23T13:05:59;0.40;;;0.40;;
21681;SDS011;11002;48.256;10.084;2022-11-23T13:08:55;0.45;;;0.45;;
21681;SDS011;11002;48.256;10.084;2022-11-23T13:11:40;0.40;;;0.40;;
21681;SDS011;11002;48.256;10.084;2022-11-23T13:14:23;0.38;;;0.38;;
21681;SDS011;11002;48.256;10.084;2022-11-23T13:17:13;0.60;;;0.60;;
21681;SDS011;11002;48.256;10.084;2022-11-23T13:19:53;0.45;;;0.43;;
21681;SDS011;11002;48.256;10.084;2022-11-23T13:22:32;0.50;;;0.40;;
21681;SDS011;11002;48.256;10.084;2022-11-23T13:25:03;0.50;;;0.50;;
21681;SDS011;11002;48.256;10.084;2022-11-23T13:27:53;0.40;;;0.40;;
21681;SDS011;11002;48.256;10.084;2022-11-23T13:30:26;0.60;;;0.47;;
21681;SDS011;11002;48.256;10.084;2022-11-23T13:32:57;0.40;;;0.40;;
21681;SDS011;11002;48.256;10.084;2022-11-23T13:44:19;0.43;;;0.43;;
21681;SDS011;11002;48.256;10.084;2022-11-23T13:46:57;0.60;;;0.30;;
21681;SDS011;11002;48.256;10.084;2022-11-23T13:49:31;0.57;;;0.50;;
21681;SDS011;11002;48.256;10.084;2022-11-23T13:54:55;0.40;;;0.40;;
21681;SDS011;11002;48.256;10.084;2022-11-23T13:57:27;0.50;;;0.35;;
21681;SDS011;11002;48.256;10.084;2022-11-23T14:05:59;0.40;;;0.40;;
21681;SDS011;11002;48.256;10.084;2022-11-23T14:08:28;0.63;;;0.30;;
21681;SDS011;11002;48.256;10.084;2022-11-23T14:10:57;0.63;;;0.50;;
21681;SDS011;11002;48.256;10.084;2022-11-23T14:13:27;0.57;;;0.40;;
21681;SDS011;11002;48.256;10.084;2022-11-23T14:15:58;1.98;;;0.32;;
21681;SDS011;11002;48.256;10.084;2022-11-23T14:18:33;0.82;;;0.40;;
21681;SDS011;11002;48.256;10.084;2022-11-23T14:21:18;0.93;;;0.43;;
21681;SDS011;11002;48.256;10.084;2022-11-23T14:27:00;0.77;;;0.30;;
21681;SDS011;11002;48.256;10.084;2022-11-23T14:29:44;0.20;;;0.20;;
21681;SDS011;11002;48.256;10.084;2022-11-23T14:32:27;0.50;;;0.32;;
21681;SDS011;11002;48.256;10.084;2022-11-23T14:35:11;0.60;;;0.30;;
21681;SDS011;11002;48.256;10.084;2022-11-23T14:37:52;0.40;;;0.40;;
21681;SDS011;11002;48.256;10.084;2022-11-23T14:40:31;0.52;;;0.30;;
21681;SDS011;11002;48.256;10.084;2022-11-23T14:43:12;0.50;;;0.50;;
21681;SDS011;11002;48.256;10.084;2022-11-23T14:45:43;0.60;;;0.40;;
21681;SDS011;11002;48.256;10.084;2022-11-23T14:48:22;0.55;;;0.30;;
21681;SDS011;11002;48.256;10.084;2022-11-23T14:50:53;0.40;;;0.40;;
21681;SDS011;11002;48.256;10.084;2022-11-23T14:53:26;1.13;;;0.40;;
21681;SDS011;11002;48.256;10.084;2022-11-23T14:55:55;0.10;;;0.10;;
21681;SDS011;11002;48.256;10.084;2022-11-23T14:58:23;0.63;;;0.43;;
21681;SDS011;11002;48.256;10.084;2022-11-23T15:00:52;0.65;;;0.35;;
21681;SDS011;11002;48.256;10.084;2022-11-23T15:03:26;0.32;;;0.30;;
21681;SDS011;11002;48.256;10.084;2022-11-23T15:06:06;0.60;;;0.40;;
21681;SDS011;11002;48.256;10.084;2022-11-23T15:08:42;0.30;;;0.22;;
21681;SDS011;11002;48.256;10.084;2022-11-23T15:11:13;0.30;;;0.28;;
21681;SDS011;11002;48.256;10.084;2022-11-23T15:13:45;1.08;;;0.30;;
21681;SDS011;11002;48.256;10.084;2022-11-23T15:16:15;1.48;;;0.10;;
21681;SDS011;11002;48.256;10.084;2022-11-23T15:18:43;0.40;;;0.20;;
21681;SDS011;11002;48.256;10.084;2022-11-23T15:21:15;0.28;;;0.28;;
21681;SDS011;11002;48.256;10.084;2022-11-23T15:23:47;1.20;;;0.33;;
21681;SDS011;11002;48.256;10.084;2022-11-23T15:26:16;0.52;;;0.40;;
21681;SDS011;11002;48.256;10.084;2022-11-23T15:28:45;0.40;;;0.30;;
21681;SDS011;11002;48.256;10.084;2022-11-23T15:31:25;0.85;;;0.20;;
21681;SDS011;11002;48.256;10.084;2022-11-23T15:33:55;0.22;;;0.20;;